Time;durP1;ratioP1;P1;durP2;ratioP2;P2;SDS_P1;SDS_P2;PMS_P1;PMS_P2;Temp;Humidity;BMP_temperature;BMP_pressure;BME280_temperature;BME280_humidity;BME280_pressure;Samples;Min_cycle;Max_cycle;Signal;HPM_P1;HPM_P2
2021/08/24 00:17:11;;;;;;;8.33;1.77;;;;;;;14.04;100.00;101051.55;21125514;82;99766;-89
2021/08/24 00:47:19;;;;;;;6.07;1.97;;;;;;;14.00;100.00;101059.06;21106391;81;99501;-89
2021/08/24 01:17:30;;;;;;;8.43;2.00;;;;;;;13.93;100.00;101069.48;21104944;82;99520;-90
2021/08/24 01:47:46;;;;;;;5.62;1.82;;;;;;;13.86;100.00;101075.55;20615194;84;99485;-89
2021/08/24 02:17:48;;;;;;;5.30;2.00;;;;;;;13.84;100.00;101092.52;20910022;82;99724;-88
2021/08/24 02:47:51;;;;;;;4.75;1.92;;;;;;;13.85;100.00;101114.86;21143515;81;99860;-87
2021/08/24 03:18:00;;;;;;;9.27;2.50;;;;;;;13.90;100.00;101130.34;21204099;80;100051;-87
2021/08/24 03:48:01;;;;;;;7.13;2.50;;;;;;;13.91;100.00;101141.00;21225541;80;99607;-87
2021/08/24 04:18:02;;;;;;;7.00;2.40;;;;;;;13.88;100.00;101170.84;21209107;81;99504;-85
2021/08/24 04:48:05;;;;;;;6.90;2.10;;;;;;;13.84;100.00;101183.84;21182398;82;99611;-87
2021/08/24 05:18:06;;;;;;;7.13;2.50;;;;;;;13.89;98.64;101223.62;21153350;82;99805;-87
2021/08/24 05:48:07;;;;;;;8.38;1.80;;;;;;;13.94;96.83;101251.53;21176986;80;180791;-88
2021/08/24 06:18:08;;;;;;;5.40;1.85;;;;;;;14.24;95.25;101276.61;21138249;82;99812;-83
2021/08/24 06:48:09;;;;;;;;;;;;;;;14.90;91.71;101312.41;20835816;80;99605;-83
2021/08/24 07:18:11;;;;;;;6.10;1.43;;;;;;;15.14;88.99;101330.38;20698829;82;85670;-83
2021/08/24 07:48:13;;;;;;;4.80;1.45;;;;;;;15.62;86.48;101345.19;20433728;83;99329;-83
2021/08/24 08:18:14;;;;;;;2.30;1.00;;;;;;;16.30;78.74;101363.70;21063748;81;99595;-81
2021/08/24 08:48:51;;;;;;;3.57;1.33;;;;;;;16.95;76.99;101359.44;21068171;80;99562;-83
2021/08/24 09:19:06;;;;;;;5.97;1.60;;;;;;;19.22;69.37;101398.72;21144268;80;99632;-83
2021/08/24 09:49:39;;;;;;;5.92;1.50;;;;;;;22.58;60.32;101416.77;20625517;83;99741;-85
2021/08/24 10:19:43;;;;;;;8.18;2.83;;;;;;;23.46;58.21;101421.66;21024704;81;99375;-84
2021/08/24 10:49:44;;;;;;;7.62;2.85;;;;;;;24.91;52.25;101426.93;21013770;82;100110;-83
2021/08/24 11:20:10;;;;;;;6.72;2.83;;;;;;;23.87;50.08;101458.31;20996516;81;100078;-85
2021/08/24 11:50:22;;;;;;;9.73;3.00;;;;;;;23.08;49.85;101464.92;20800036;81;99546;-81
2021/08/24 12:20:40;;;;;;;6.95;2.80;;;;;;;23.57;49.50;101454.48;20569145;82;99308;-85
2021/08/24 12:50:55;;;;;;;5.72;2.30;;;;;;;23.83;50.19;101441.55;20769261;82;99492;-83
2021/08/24 13:21:13;;;;;;;5.87;2.70;;;;;;;22.80;50.99;101459.16;20989612;82;99511;-84
2021/08/24 13:51:16;;;;;;;8.57;2.80;;;;;;;21.85;53.46;101456.89;21067384;81;99651;-81
2021/08/24 14:21:17;;;;;;;7.20;2.80;;;;;;;21.68;54.08;101443.23;20915332;82;99615;-82
2021/08/24 14:51:19;;;;;;;5.97;2.83;;;;;;;21.47;55.54;101442.94;21006116;81;99662;-84
2021/08/24 15:21:27;;;;;;;8.37;2.60;;;;;;;21.37;56.63;101441.11;20981434;81;99356;-84
2021/08/24 15:51:30;;;;;;;7.67;2.93;;;;;;;20.54;56.30;101440.39;20951524;82;99512;-85
2021/08/24 16:21:31;;;;;;;6.83;2.50;;;;;;;19.89;57.87;101447.75;20925363;81;99908;-84
2021/08/24 16:51:33;;;;;;;7.35;2.75;;;;;;;19.52;59.62;101453.30;21062460;81;99949;-83
2021/08/24 17:21:34;;;;;;;11.70;2.67;;;;;;;19.02;60.91;101440.31;21182446;81;99235;-84
2021/08/24 17:51:35;;;;;;;9.80;3.52;;;;;;;18.22;63.45;101440.16;21178868;82;99808;-83
2021/08/24 18:21:36;;;;;;;10.67;3.63;;;;;;;17.10;64.23;101466.73;21208113;80;99567;-85
2021/08/24 18:51:37;;;;;;;11.20;4.15;;;;;;;15.89;68.56;101474.79;21217341;81;99475;-83
2021/08/24 19:21:39;;;;;;;11.50;5.07;;;;;;;14.82;70.67;101501.98;21197314;80;100136;-84
2021/08/24 19:51:40;;;;;;;12.90;5.20;;;;;;;13.98;73.27;101504.23;21197562;80;99658;-84
2021/08/24 20:21:43;;;;;;;12.60;5.83;;;;;;;13.56;75.82;101516.03;21186943;80;109096;-87
2021/08/24 20:51:44;;;;;;;15.97;5.03;;;;;;;13.28;76.41;101483.19;21141720;82;100036;-86
2021/08/24 21:21:45;;;;;;;15.45;6.33;;;;;;;13.07;75.86;101482.01;21063812;81;100048;-87
2021/08/24 21:51:50;;;;;;;14.70;5.55;;;;;;;12.75;77.06;101495.22;21097300;81;99732;-87
2021/08/24 22:21:59;;;;;;;17.43;6.30;;;;;;;12.31;78.24;101487.03;21203743;80;99817;-87
2021/08/24 22:52:00;;;;;;;12.70;5.13;;;;;;;11.90;79.00;101464.28;21130622;80;99823;-87
2021/08/24 23:22:00;;;;;;;12.73;4.70;;;;;;;11.44;80.98;101445.05;21038396;81;99380;-88
2021/08/24 23:52:01;;;;;;;12.97;5.83;;;;;;;10.99;82.37;101435.05;21107561;81;99692;-88
